Time,TemperatureF,DewpointF,PressureIn,WindDirection,WindDirectionDegrees,WindSpeedMPH,WindSpeedGustMPH,Humidity,HourlyPrecipIn,Conditions,Clouds,dailyrainin,SoftwareType,DateUTC
2013-08-25 00:01:00,60.4,50.2,29.32,SW,225,0.0,0.0,69,0.00,,---,0.00,VWS V13.01,2013-08-25 04:01:00,
2013-08-25 00:03:00,60.4,50.2,29.32,SW,225,0.0,0.0,69,0.00,,---,0.00,VWS V13.01,2013-08-25 04:03:00,
2013-08-25 00:14:00,60.3,50.5,29.32,SW,225,0.0,0.0,70,0.00,,---,0.00,VWS V13.01,2013-08-25 04:14:00,
2013-08-25 00:16:00,60.3,50.5,29.32,SW,225,0.0,0.0,70,0.00,,---,0.00,VWS V13.01,2013-08-25 04:16:00,
2013-08-25 00:21:00,60.3,50.5,29.32,SW,225,0.0,0.0,70,0.00,,---,0.00,VWS V13.01,2013-08-25 04:21:00,
2013-08-25 00:26:00,60.4,51.0,29.32,SW,225,0.0,0.0,71,0.00,,---,0.00,VWS V13.01,2013-08-25 04:26:00,
2013-08-25 00:31:00,60.3,50.8,29.32,SW,225,0.0,0.0,71,0.00,,---,0.00,VWS V13.01,2013-08-25 04:31:00,
2013-08-25 00:36:00,60.4,51.4,29.32,SW,225,0.0,0.0,72,0.00,,---,0.00,VWS V13.01,2013-08-25 04:36:00,
2013-08-25 00:41:00,60.4,51.4,29.32,SW,225,0.0,0.0,72,0.00,,---,0.00,VWS V13.01,2013-08-25 04:41:00,
2013-08-25 00:46:00,60.3,51.2,29.32,SW,225,0.0,0.0,72,0.00,,---,0.00,VWS V13.01,2013-08-25 04:46:00,
2013-08-25 00:51:00,60.3,51.2,29.32,SW,225,0.0,0.0,72,0.00,,---,0.00,VWS V13.01,2013-08-25 04:51:00,
2013-08-25 00:56:00,59.9,50.9,29.32,SW,225,0.0,0.0,72,0.00,,---,0.00,VWS V13.01,2013-08-25 04:56:00,
2013-08-25 01:01:00,59.9,50.9,29.32,SW,225,0.0,0.0,72,0.00,,---,0.00,VWS V13.01,2013-08-25 05:01:00,
2013-08-25 01:06:00,59.9,50.9,29.32,SW,225,0.0,0.0,72,0.00,,---,0.00,VWS V13.01,2013-08-25 05:06:00,
2013-08-25 01:11:00,59.9,51.2,29.32,SW,225,0.0,0.0,73,0.00,,---,0.00,VWS V13.01,2013-08-25 05:11:00,
2013-08-25 01:16:00,59.9,51.6,29.32,SW,225,0.0,0.0,74,0.00,,---,0.00,VWS V13.01,2013-08-25 05:16:00,
2013-08-25 01:21:00,59.9,52.0,29.32,SW,225,0.0,0.0,75,0.00,,---,0.00,VWS V13.01,2013-08-25 05:21:00,
2013-08-25 01:26:00,60.1,52.5,29.32,SW,225,0.0,0.0,76,0.00,,---,0.00,VWS V13.01,2013-08-25 05:26:00,
2013-08-25 01:31:00,59.9,52.3,29.32,SW,225,0.0,0.0,76,0.00,,---,0.00,VWS V13.01,2013-08-25 05:31:00,
2013-08-25 01:36:00,59.9,52.7,29.32,SW,225,0.0,0.0,77,0.00,,---,0.00,VWS V13.01,2013-08-25 05:36:00,
2013-08-25 01:41:00,59.9,52.7,29.32,SW,225,0.0,0.0,77,0.00,,---,0.00,VWS V13.01,2013-08-25 05:41:00,
2013-08-25 01:46:00,60.1,53.2,29.32,SW,225,0.0,0.0,78,0.00,,---,0.00,VWS V13.01,2013-08-25 05:46:00,
2013-08-25 01:52:00,59.9,53.0,29.32,SW,225,0.0,0.0,78,0.00,,---,0.00,VWS V13.01,2013-08-25 05:52:00,
2013-08-25 01:57:00,59.9,53.0,29.32,SW,225,0.0,0.0,78,0.00,,---,0.00,VWS V13.01,2013-08-25 05:57:00,
2013-08-25 02:02:00,59.9,53.0,29.32,SW,225,0.0,0.0,78,0.00,,---,0.00,VWS V13.01,2013-08-25 06:02:00,
2013-08-25 02:07:00,59.9,53.4,29.32,SW,225,0.0,0.0,79,0.00,,---,0.00,VWS V13.01,2013-08-25 06:07:00,
2013-08-25 02:12:00,59.9,53.4,29.32,SW,225,0.0,0.0,79,0.00,,---,0.00,VWS V13.01,2013-08-25 06:12:00,
2013-08-25 02:17:00,60.1,53.6,29.32,SW,225,0.0,0.0,79,0.00,,---,0.00,VWS V13.01,2013-08-25 06:17:00,
2013-08-25 02:22:00,60.1,53.6,29.32,SW,225,0.0,0.0,79,0.00,,---,0.00,VWS V13.01,2013-08-25 06:22:00,
2013-08-25 02:27:00,60.1,53.6,29.32,SW,225,0.0,0.0,79,0.00,,---,0.00,VWS V13.01,2013-08-25 06:27:00,
2013-08-25 02:32:00,59.9,53.4,29.29,SW,225,0.0,0.0,79,0.00,,---,0.00,VWS V13.01,2013-08-25 06:32:00,
2013-08-25 02:37:00,59.9,53.4,29.29,SW,225,0.0,0.0,79,0.00,,---,0.00,VWS V13.01,2013-08-25 06:37:00,
2013-08-25 02:42:00,59.9,53.4,29.29,SW,225,0.0,0.0,79,0.00,,---,0.00,VWS V13.01,2013-08-25 06:42:00,
2013-08-25 02:47:00,59.9,53.4,29.29,SW,225,0.0,0.0,79,0.00,,---,0.00,VWS V13.01,2013-08-25 06:47:00,
2013-08-25 02:52:00,59.7,53.2,29.32,SW,225,0.0,0.0,79,0.00,,---,0.00,VWS V13.01,2013-08-25 06:52:00,
2013-08-25 02:57:00,59.7,53.5,29.32,SW,225,0.0,0.0,80,0.00,,---,0.00,VWS V13.01,2013-08-25 06:57:00,
2013-08-25 03:02:00,59.5,53.4,29.32,SW,225,0.0,0.0,80,0.00,,---,0.00,VWS V13.01,2013-08-25 07:02:00,
2013-08-25 03:07:00,59.5,53.4,29.32,SW,225,0.0,0.0,80,0.00,,---,0.00,VWS V13.01,2013-08-25 07:07:00,
2013-08-25 03:12:00,59.4,53.2,29.32,SW,225,0.0,0.0,80,0.00,,---,0.00,VWS V13.01,2013-08-25 07:12:00,
2013-08-25 03:17:00,59.4,53.2,29.32,SW,225,0.0,0.0,80,0.00,,---,0.00,VWS V13.01,2013-08-25 07:17:00,
2013-08-25 03:22:00,59.4,53.2,29.32,SW,225,0.0,0.0,80,0.00,,---,0.00,VWS V13.01,2013-08-25 07:22:00,
2013-08-25 03:27:00,59.2,53.0,29.32,SW,225,0.0,0.0,80,0.00,,---,0.00,VWS V13.01,2013-08-25 07:27:00,
2013-08-25 03:32:00,59.2,53.0,29.32,SW,225,0.0,0.0,80,0.00,,---,0.00,VWS V13.01,2013-08-25 07:32:00,
2013-08-25 03:37:00,59.0,52.8,29.32,SW,225,0.0,0.0,80,0.00,,---,0.00,VWS V13.01,2013-08-25 07:37:00,
2013-08-25 03:42:00,59.0,52.8,29.32,SW,225,0.0,0.0,80,0.00,,---,0.00,VWS V13.01,2013-08-25 07:42:00,
2013-08-25 03:48:00,59.0,52.8,29.32,SW,225,0.0,0.0,80,0.00,,---,0.00,VWS V13.01,2013-08-25 07:48:00,
2013-08-25 03:53:00,59.0,52.8,29.32,SW,225,0.0,0.0,80,0.00,,---,0.00,VWS V13.01,2013-08-25 07:53:00,
2013-08-25 03:58:00,59.0,52.8,29.32,SW,225,0.0,0.0,80,0.00,,---,0.00,VWS V13.01,2013-08-25 07:58:00,
2013-08-25 04:03:00,59.0,52.8,29.32,SW,225,0.0,0.0,80,0.00,,---,0.00,VWS V13.01,2013-08-25 08:03:00,
2013-08-25 04:08:00,59.0,53.2,29.32,SW,225,0.0,0.0,81,0.00,,---,0.00,VWS V13.01,2013-08-25 08:08:00,
2013-08-25 04:13:00,59.0,53.2,29.32,SW,225,0.0,0.0,81,0.00,,---,0.00,VWS V13.01,2013-08-25 08:13:00,
2013-08-25 04:18:00,59.0,53.2,29.32,SW,225,0.0,0.0,81,0.00,,---,0.00,VWS V13.01,2013-08-25 08:18:00,
2013-08-25 04:23:00,59.0,53.2,29.32,SW,225,0.0,0.0,81,0.00,,---,0.00,VWS V13.01,2013-08-25 08:23:00,
2013-08-25 04:28:00,58.8,53.0,29.32,SW,225,0.0,0.0,81,0.00,,---,0.00,VWS V13.01,2013-08-25 08:28:00,
2013-08-25 04:33:00,58.8,53.0,29.32,SW,225,0.0,0.0,81,0.00,,---,0.00,VWS V13.01,2013-08-25 08:33:00,
2013-08-25 04:38:00,58.8,53.0,29.32,SW,225,0.0,0.0,81,0.00,,---,0.00,VWS V13.01,2013-08-25 08:38:00,
2013-08-25 04:43:00,58.6,52.8,29.32,SW,225,0.0,0.0,81,0.00,,---,0.00,VWS V13.01,2013-08-25 08:43:00,
2013-08-25 04:48:00,58.6,52.8,29.32,SW,225,0.0,0.0,81,0.00,,---,0.00,VWS V13.01,2013-08-25 08:48:00,
2013-08-25 04:53:00,58.5,52.7,29.32,SW,225,0.0,0.0,81,0.00,,---,0.00,VWS V13.01,2013-08-25 08:53:00,
2013-08-25 04:58:00,58.3,52.5,29.32,SW,225,0.0,0.0,81,0.00,,---,0.00,VWS V13.01,2013-08-25 08:58:00,
2013-08-25 05:03:00,58.3,52.5,29.32,SW,225,0.0,0.0,81,0.00,,---,0.00,VWS V13.01,2013-08-25 09:03:00,
2013-08-25 05:08:00,58.1,52.3,29.32,SW,225,0.0,0.0,81,0.00,,---,0.00,VWS V13.01,2013-08-25 09:08:00,
2013-08-25 05:13:00,58.1,52.3,29.32,SW,225,0.0,0.0,81,0.00,,---,0.00,VWS V13.01,2013-08-25 09:13:00,
2013-08-25 05:18:00,58.1,52.6,29.32,SW,225,0.0,0.0,82,0.00,,---,0.00,VWS V13.01,2013-08-25 09:18:00,
2013-08-25 05:23:00,58.1,52.6,29.32,SW,225,0.0,0.0,82,0.00,,---,0.00,VWS V13.01,2013-08-25 09:23:00,
2013-08-25 05:28:00,58.1,52.6,29.32,SW,225,0.0,0.0,82,0.00,,---,0.00,VWS V13.01,2013-08-25 09:28:00,
2013-08-25 05:33:00,57.9,52.5,29.32,SW,225,0.0,0.0,82,0.00,,---,0.00,VWS V13.01,2013-08-25 09:33:00,
2013-08-25 05:38:00,57.9,52.5,29.32,SW,225,0.0,0.0,82,0.00,,---,0.00,VWS V13.01,2013-08-25 09:38:00,
2013-08-25 05:43:00,57.7,52.3,29.32,SW,225,0.0,0.0,82,0.00,,---,0.00,VWS V13.01,2013-08-25 09:43:00,
2013-08-25 05:48:00,57.7,52.3,29.35,SW,225,0.0,0.0,82,0.00,,---,0.00,VWS V13.01,2013-08-25 09:48:00,
2013-08-25 05:53:00,57.9,52.5,29.35,SW,225,0.0,0.0,82,0.00,,---,0.00,VWS V13.01,2013-08-25 09:53:00,
2013-08-25 05:59:00,57.7,52.3,29.35,SW,225,0.0,0.0,82,0.00,,---,0.00,VWS V13.01,2013-08-25 09:59:00,
2013-08-25 06:04:00,57.7,52.3,29.35,SW,225,0.0,0.0,82,0.00,,---,0.00,VWS V13.01,2013-08-25 10:04:00,
2013-08-25 06:09:00,57.7,52.3,29.35,SW,225,0.0,0.0,82,0.00,,---,0.00,VWS V13.01,2013-08-25 10:09:00,
2013-08-25 06:14:00,57.7,52.3,29.35,SW,225,0.0,0.0,82,0.00,,---,0.00,VWS V13.01,2013-08-25 10:14:00,
2013-08-25 06:19:00,57.6,52.1,29.35,SW,225,0.0,0.0,82,0.00,,---,0.00,VWS V13.01,2013-08-25 10:19:00,
2013-08-25 06:24:00,57.6,52.1,29.35,SW,225,0.0,0.0,82,0.00,,---,0.00,VWS V13.01,2013-08-25 10:24:00,
2013-08-25 06:29:00,57.6,52.1,29.35,SW,225,0.0,0.0,82,0.00,,---,0.00,VWS V13.01,2013-08-25 10:29:00,
2013-08-25 06:34:00,57.6,52.1,29.35,SW,225,0.0,0.0,82,0.00,,---,0.00,VWS V13.01,2013-08-25 10:34:00,
2013-08-25 06:39:00,57.4,51.9,29.35,SW,225,0.0,0.0,82,0.00,,---,0.00,VWS V13.01,2013-08-25 10:39:00,
2013-08-25 06:44:00,57.4,51.9,29.35,SW,225,0.0,0.0,82,0.00,,---,0.00,VWS V13.01,2013-08-25 10:44:00,
2013-08-25 06:49:00,57.4,51.9,29.35,SW,225,0.0,0.0,82,0.00,,---,0.00,VWS V13.01,2013-08-25 10:49:00,
2013-08-25 06:54:00,57.4,51.9,29.35,SW,225,0.0,0.0,82,0.00,,---,0.00,VWS V13.01,2013-08-25 10:54:00,
2013-08-25 06:59:00,57.4,51.9,29.35,SW,225,0.0,0.0,82,0.00,,---,0.00,VWS V13.01,2013-08-25 10:59:00,
2013-08-25 07:04:00,57.6,52.1,29.35,SW,225,0.0,0.0,82,0.00,,---,0.00,VWS V13.01,2013-08-25 11:04:00,
2013-08-25 07:09:00,57.6,52.1,29.35,SW,225,0.0,0.0,82,0.00,,---,0.00,VWS V13.01,2013-08-25 11:09:00,
2013-08-25 07:14:00,57.6,52.1,29.35,SW,225,0.0,0.0,82,0.00,,---,0.00,VWS V13.01,2013-08-25 11:14:00,
2013-08-25 07:19:00,57.6,52.1,29.35,SW,225,0.0,0.0,82,0.00,,---,0.00,VWS V13.01,2013-08-25 11:19:00,
2013-08-25 07:24:00,57.6,52.1,29.35,SW,225,0.0,0.0,82,0.00,,---,0.00,VWS V13.01,2013-08-25 11:24:00,
2013-08-25 07:29:00,57.6,52.1,29.35,SW,225,0.0,0.0,82,0.00,,---,0.00,VWS V13.01,2013-08-25 11:29:00,
2013-08-25 07:34:00,57.6,52.1,29.35,SW,225,0.0,0.0,82,0.00,,---,0.00,VWS V13.01,2013-08-25 11:34:00,
2013-08-25 07:39:00,57.7,52.3,29.35,SW,225,0.0,0.0,82,0.00,,---,0.00,VWS V13.01,2013-08-25 11:39:00,
2013-08-25 07:44:00,57.9,52.5,29.35,SW,225,0.0,0.0,82,0.00,,---,0.00,VWS V13.01,2013-08-25 11:44:00,
2013-08-25 07:49:00,57.9,52.5,29.35,SW,225,0.0,0.0,82,0.00,,---,0.00,VWS V13.01,2013-08-25 11:49:00,
2013-08-25 07:54:00,58.1,52.6,29.35,SW,225,0.0,0.0,82,0.00,,---,0.00,VWS V13.01,2013-08-25 11:54:00,
2013-08-25 07:59:00,58.3,52.8,29.35,SW,225,0.0,0.0,82,0.00,,---,0.00,VWS V13.01,2013-08-25 11:59:00,
2013-08-25 08:05:00,58.5,53.0,29.35,SW,225,0.0,0.0,82,0.00,,---,0.00,VWS V13.01,2013-08-25 12:05:00,
2013-08-25 08:10:00,58.6,53.2,29.35,SW,225,0.0,0.0,82,0.00,,---,0.00,VWS V13.01,2013-08-25 12:10:00,
2013-08-25 08:15:00,58.8,53.3,29.35,SW,225,0.0,0.0,82,0.00,,---,0.00,VWS V13.01,2013-08-25 12:15:00,
2013-08-25 08:20:00,59.0,53.5,29.35,SW,225,0.0,0.0,82,0.00,,---,0.00,VWS V13.01,2013-08-25 12:20:00,
2013-08-25 08:25:00,59.2,53.7,29.35,SW,225,0.0,0.0,82,0.00,,---,0.00,VWS V13.01,2013-08-25 12:25:00,
2013-08-25 08:30:00,59.4,53.9,29.35,SW,225,0.0,0.0,82,0.00,,---,0.00,VWS V13.01,2013-08-25 12:30:00,
2013-08-25 08:35:00,59.4,53.9,29.38,SW,225,0.0,0.0,82,0.00,,---,0.00,VWS V13.01,2013-08-25 12:35:00,
2013-08-25 08:40:00,59.5,54.0,29.38,SW,225,0.0,0.0,82,0.00,,---,0.00,VWS V13.01,2013-08-25 12:40:00,
2013-08-25 08:45:00,59.9,54.4,29.38,SW,225,0.0,0.0,82,0.00,,---,0.00,VWS V13.01,2013-08-25 12:45:00,
2013-08-25 08:50:00,60.3,54.8,29.38,SW,225,0.0,0.0,82,0.00,,---,0.00,VWS V13.01,2013-08-25 12:50:00,
2013-08-25 08:55:00,60.4,54.9,29.38,SW,225,0.0,0.0,82,0.00,,---,0.00,VWS V13.01,2013-08-25 12:55:00,
2013-08-25 09:00:00,60.6,55.1,29.38,SW,225,0.0,0.0,82,0.00,,---,0.00,VWS V13.01,2013-08-25 13:00:00,
2013-08-25 09:05:00,61.0,55.5,29.35,SW,225,0.0,0.0,82,0.00,,---,0.00,VWS V13.01,2013-08-25 13:05:00,
2013-08-25 09:10:00,61.0,55.5,29.35,SW,225,0.0,0.0,82,0.00,,---,0.00,VWS V13.01,2013-08-25 13:10:00,
2013-08-25 09:15:00,61.7,56.2,29.35,SW,225,0.0,0.0,82,0.00,,---,0.00,VWS V13.01,2013-08-25 13:15:00,
2013-08-25 09:20:00,61.9,56.3,29.35,SW,225,0.0,0.0,82,0.00,,---,0.00,VWS V13.01,2013-08-25 13:20:00,